Juno Beach, Florida
Current Conditions -  °F | °C
As of 1:26 PM on Tuesday 21 Oct 2014 (Local Time) from KPBI Reporting Station
Thunderstorm Thunderstorm  
Wind Chill: 75°   Ceiling: 1100
Heat Index: 75°   Visibility: 2mi
Dew Point: 72°   Wind: 15mph
Humidity: 90%   Direction: 120°ESE
Pressure: 29.94"   Gusts: 22mph
Location:  26.8566°N, 80.0556°W
Report Text: KPBI 211726Z 12013G19KT 080V150 2SM R10L/2600VP6000FT +TSRA BR SCT006 BKN011 OVC020CB 24/22 A2994 RMK AO2 VIS NE-SE 1 OCNL LTGIC OHD-ALQDS TS OHD-ALQDS MOV LTL P0000 T02390222
Loading
Personal Weather Stations






























Interactive Weather Map
Tropical Storm Tracking
New forecast layout! Learn more

10-Day Weather Forecast

Advertisements
Track Severe Weather on mobile